JAG1033 KPIT-KFLL
Flight info
| Callsign | JAG1033 |
|---|---|
| Flight time | 2h 9m |
| Altitude | 38000 |
| Route | CKB COBBE DANCO Q103 SLOJO/N0429F370 EFFAY/N0437F380 Q83 JEVED Q97 PRMUS CUUDA3 |
| Aircraft | A320/M-SDE3FGHIRWY/LB1 |
Departure
| Time | 2026-05-06 00:02 |
|---|---|
| Airport | Pittsburgh International Airport (KPIT) |
Arrival
| Time | 2026-05-06 02:11 |
|---|---|
| Airport | Fort Lauderdale Hollywood International Airport (KFLL) |
| Time | Latitude | Longitude | Altitude | Speed | Heading |
|---|---|---|---|---|---|
| 2026-05-05 23:34 | 40.49463 | -80.24394 | 1155 ft | 0 kts | 223° |
| 2026-05-05 23:49 | 40.49473 | -80.24381 | 1155 ft | 2 kts | 221° |
| 2026-05-05 23:49 | 40.49487 | -80.24371 | 1155 ft | 2 kts | 203° |
| 2026-05-05 23:49 | 40.49504 | -80.24369 | 1155 ft | 2 kts | 167° |
| 2026-05-05 23:49 | 40.49515 | -80.24373 | 1154 ft | 0 kts | 153° |
| 2026-05-05 23:52 | 40.49512 | -80.24370 | 1154 ft | 2 kts | 152° |
| 2026-05-05 23:52 | 40.49493 | -80.24352 | 1155 ft | 5 kts | 140° |
| 2026-05-05 23:52 | 40.49462 | -80.24315 | 1155 ft | 7 kts | 136° |
| 2026-05-05 23:52 | 40.49422 | -80.24256 | 1155 ft | 10 kts | 120° |
| 2026-05-05 23:53 | 40.49415 | -80.24159 | 1155 ft | 12 kts | 91° |
| 2026-05-05 23:53 | 40.49412 | -80.24069 | 1155 ft | 5 kts | 93° |
| 2026-05-05 23:53 | 40.49408 | -80.24012 | 1155 ft | 7 kts | 105° |
| 2026-05-05 23:53 | 40.49361 | -80.23983 | 1155 ft | 9 kts | 177° |
| 2026-05-05 23:54 | 40.49291 | -80.23984 | 1155 ft | 11 kts | 182° |
| 2026-05-05 23:54 | 40.49206 | -80.23990 | 1155 ft | 13 kts | 182° |
| 2026-05-05 23:54 | 40.49106 | -80.23993 | 1154 ft | 15 kts | 174° |
| 2026-05-05 23:54 | 40.49064 | -80.23872 | 1153 ft | 17 kts | 91° |
| 2026-05-05 23:55 | 40.49060 | -80.23705 | 1153 ft | 19 kts | 92° |
| 2026-05-05 23:55 | 40.49055 | -80.23522 | 1154 ft | 21 kts | 91° |
| 2026-05-05 23:55 | 40.49050 | -80.23321 | 1153 ft | 23 kts | 91° |
| 2026-05-05 23:55 | 40.49044 | -80.23099 | 1153 ft | 25 kts | 91° |
| 2026-05-05 23:56 | 40.49037 | -80.22863 | 1153 ft | 21 kts | 94° |
| 2026-05-05 23:56 | 40.49033 | -80.22693 | 1153 ft | 19 kts | 91° |
| 2026-05-05 23:56 | 40.49029 | -80.22516 | 1153 ft | 16 kts | 91° |
| 2026-05-05 23:56 | 40.49025 | -80.22359 | 1151 ft | 18 kts | 92° |
| 2026-05-05 23:57 | 40.49034 | -80.22183 | 1153 ft | 20 kts | 91° |
| 2026-05-05 23:57 | 40.49029 | -80.21992 | 1153 ft | 22 kts | 92° |
| 2026-05-05 23:57 | 40.49024 | -80.21791 | 1149 ft | 14 kts | 90° |
| 2026-05-05 23:57 | 40.49021 | -80.21655 | 1151 ft | 15 kts | 93° |
| 2026-05-05 23:58 | 40.49002 | -80.21520 | 1152 ft | 12 kts | 104° |
| 2026-05-05 23:58 | 40.48989 | -80.21453 | 1152 ft | 9 kts | 102° |
| 2026-05-05 23:58 | 40.48984 | -80.21364 | 1152 ft | 11 kts | 91° |
| 2026-05-05 23:58 | 40.48983 | -80.21259 | 1152 ft | 12 kts | 91° |
| 2026-05-05 23:59 | 40.48979 | -80.21138 | 1152 ft | 14 kts | 92° |
| 2026-05-05 23:59 | 40.48978 | -80.21091 | 1152 ft | 0 kts | 91° |
| 2026-05-05 23:59 | 40.48978 | -80.21077 | 1152 ft | 3 kts | 91° |
| 2026-05-05 23:59 | 40.48977 | -80.21042 | 1152 ft | 5 kts | 91° |
| 2026-05-06 00:00 | 40.48976 | -80.20990 | 1152 ft | 7 kts | 92° |
| 2026-05-06 00:00 | 40.48955 | -80.20931 | 1151 ft | 8 kts | 152° |
| 2026-05-06 00:00 | 40.48892 | -80.20964 | 1150 ft | 12 kts | 237° |
| 2026-05-06 00:00 | 40.48894 | -80.21079 | 1150 ft | 14 kts | 272° |
| 2026-05-06 00:01 | 40.48900 | -80.21330 | 1150 ft | 57 kts | 271° |
| 2026-05-06 00:01 | 40.48922 | -80.22143 | 1152 ft | 117 kts | 271° |
| 2026-05-06 00:01 | 40.48954 | -80.23422 | 1177 ft | 159 kts | 271° |
| 2026-05-06 00:01 | 40.48986 | -80.24889 | 1723 ft | 159 kts | 264° |
| 2026-05-06 00:02 | 40.48769 | -80.26343 | 2018 ft | 173 kts | 232° |
| 2026-05-06 00:02 | 40.47711 | -80.27168 | 2235 ft | 195 kts | 190° |
| 2026-05-06 00:02 | 40.46272 | -80.27247 | 2468 ft | 219 kts | 183° |
| 2026-05-06 00:02 | 40.44668 | -80.27175 | 2679 ft | 240 kts | 182° |
| 2026-05-06 00:03 | 40.42971 | -80.27076 | 3197 ft | 247 kts | 182° |
| 2026-05-06 00:03 | 40.41269 | -80.26993 | 4169 ft | 247 kts | 183° |
| 2026-05-06 00:03 | 40.39546 | -80.26932 | 5181 ft | 248 kts | 184° |
| 2026-05-06 00:03 | 40.37808 | -80.26895 | 6126 ft | 250 kts | 185° |
| 2026-05-06 00:04 | 40.36063 | -80.26876 | 7053 ft | 251 kts | 186° |
| 2026-05-06 00:04 | 40.34300 | -80.26869 | 7883 ft | 256 kts | 186° |
| 2026-05-06 00:04 | 40.32500 | -80.26868 | 8734 ft | 260 kts | 186° |
| 2026-05-06 00:04 | 40.30680 | -80.26866 | 9615 ft | 264 kts | 187° |
| 2026-05-06 00:05 | 40.26820 | -80.26874 | 10527 ft | 298 kts | 186° |
| 2026-05-06 00:05 | 40.24692 | -80.26879 | 11011 ft | 310 kts | 186° |
| 2026-05-06 00:05 | 40.22517 | -80.26872 | 11742 ft | 314 kts | 185° |
| 2026-05-06 00:06 | 40.20325 | -80.26861 | 12524 ft | 316 kts | 185° |
| 2026-05-06 00:06 | 40.18123 | -80.26851 | 13304 ft | 318 kts | 185° |
| 2026-05-06 00:06 | 40.15903 | -80.26844 | 14028 ft | 320 kts | 185° |
| 2026-05-06 00:06 | 40.13660 | -80.26840 | 14620 ft | 324 kts | 186° |
| 2026-05-06 00:07 | 40.11383 | -80.26840 | 15168 ft | 329 kts | 186° |
| 2026-05-06 00:07 | 40.09073 | -80.26844 | 15731 ft | 334 kts | 186° |
| 2026-05-06 00:07 | 40.06731 | -80.26850 | 16289 ft | 339 kts | 186° |
| 2026-05-06 00:07 | 40.04359 | -80.26852 | 16864 ft | 343 kts | 186° |
| 2026-05-06 00:08 | 40.01989 | -80.26849 | 17423 ft | 347 kts | 187° |
| 2026-05-06 00:08 | 39.99555 | -80.26847 | 17999 ft | 352 kts | 187° |
| 2026-05-06 00:08 | 39.97093 | -80.26843 | 18523 ft | 356 kts | 187° |
| 2026-05-06 00:08 | 39.94599 | -80.26843 | 19021 ft | 361 kts | 187° |
| 2026-05-06 00:09 | 39.92073 | -80.26843 | 19541 ft | 365 kts | 187° |
| 2026-05-06 00:09 | 39.89520 | -80.26839 | 20058 ft | 369 kts | 186° |
| 2026-05-06 00:09 | 39.86933 | -80.26834 | 20551 ft | 373 kts | 186° |
| 2026-05-06 00:09 | 39.84322 | -80.26834 | 21030 ft | 378 kts | 186° |
| 2026-05-06 00:10 | 39.81674 | -80.26833 | 21457 ft | 383 kts | 186° |
| 2026-05-06 00:10 | 39.78994 | -80.26831 | 21898 ft | 387 kts | 186° |
| 2026-05-06 00:10 | 39.76278 | -80.26828 | 22380 ft | 391 kts | 186° |
| 2026-05-06 00:10 | 39.73547 | -80.26824 | 22855 ft | 395 kts | 186° |
| 2026-05-06 00:11 | 39.70784 | -80.26822 | 23307 ft | 399 kts | 186° |
| 2026-05-06 00:11 | 39.68001 | -80.26820 | 23704 ft | 402 kts | 186° |
| 2026-05-06 00:11 | 39.65184 | -80.26817 | 24102 ft | 405 kts | 186° |
| 2026-05-06 00:11 | 39.62357 | -80.26815 | 24490 ft | 408 kts | 186° |
| 2026-05-06 00:12 | 39.59503 | -80.26815 | 24857 ft | 411 kts | 186° |
| 2026-05-06 00:12 | 39.56633 | -80.26816 | 25253 ft | 414 kts | 186° |
| 2026-05-06 00:12 | 39.53786 | -80.26817 | 25630 ft | 417 kts | 186° |
| 2026-05-06 00:12 | 39.50873 | -80.26815 | 26018 ft | 419 kts | 186° |
| 2026-05-06 00:13 | 39.47946 | -80.26813 | 26391 ft | 422 kts | 186° |
| 2026-05-06 00:13 | 39.44996 | -80.26810 | 26763 ft | 425 kts | 186° |
| 2026-05-06 00:13 | 39.42028 | -80.26807 | 27132 ft | 428 kts | 186° |
| 2026-05-06 00:13 | 39.39043 | -80.26806 | 27480 ft | 431 kts | 186° |
| 2026-05-06 00:14 | 39.36029 | -80.26805 | 27845 ft | 435 kts | 186° |
| 2026-05-06 00:14 | 39.32996 | -80.26804 | 28194 ft | 438 kts | 186° |
| 2026-05-06 00:14 | 39.29933 | -80.26802 | 28563 ft | 441 kts | 186° |
| 2026-05-06 00:14 | 39.26860 | -80.26818 | 28925 ft | 442 kts | 189° |
| 2026-05-06 00:15 | 39.23809 | -80.27251 | 29287 ft | 437 kts | 197° |
| 2026-05-06 00:15 | 39.20862 | -80.28103 | 29648 ft | 438 kts | 199° |
| 2026-05-06 00:15 | 39.17865 | -80.28996 | 29989 ft | 441 kts | 200° |
| 2026-05-06 00:15 | 39.15879 | -80.29587 | 30151 ft | 443 kts | 200° |
| 2026-05-06 00:16 | 39.12860 | -80.30487 | 30396 ft | 447 kts | 200° |
| 2026-05-06 00:16 | 39.09816 | -80.31392 | 30666 ft | 451 kts | 200° |
| 2026-05-06 00:16 | 39.05736 | -80.32598 | 31013 ft | 455 kts | 200° |
| 2026-05-06 00:16 | 39.03643 | -80.33217 | 31196 ft | 457 kts | 201° |
| 2026-05-06 00:17 | 39.00535 | -80.34135 | 31457 ft | 461 kts | 201° |
| 2026-05-06 00:17 | 38.97399 | -80.35056 | 31828 ft | 462 kts | 201° |
| 2026-05-06 00:17 | 38.94296 | -80.35961 | 32185 ft | 463 kts | 201° |
| 2026-05-06 00:17 | 38.91057 | -80.36517 | 32511 ft | 476 kts | 192° |
| 2026-05-06 00:18 | 38.87743 | -80.36774 | 32858 ft | 478 kts | 192° |
| 2026-05-06 00:18 | 38.84411 | -80.37017 | 33210 ft | 480 kts | 192° |
| 2026-05-06 00:18 | 38.81060 | -80.37249 | 33571 ft | 482 kts | 193° |
| 2026-05-06 00:18 | 38.77712 | -80.37483 | 33914 ft | 483 kts | 193° |
| 2026-05-06 00:19 | 38.74353 | -80.37721 | 34244 ft | 484 kts | 193° |
| 2026-05-06 00:19 | 38.70983 | -80.37959 | 34595 ft | 484 kts | 193° |
| 2026-05-06 00:19 | 38.67620 | -80.38198 | 34954 ft | 483 kts | 193° |
| 2026-05-06 00:19 | 38.64259 | -80.38439 | 35300 ft | 483 kts | 193° |
| 2026-05-06 00:20 | 38.60905 | -80.38684 | 35688 ft | 482 kts | 194° |
| 2026-05-06 00:20 | 38.57571 | -80.38925 | 36129 ft | 480 kts | 194° |
| 2026-05-06 00:20 | 38.54237 | -80.39165 | 36472 ft | 480 kts | 194° |
| 2026-05-06 00:20 | 38.50903 | -80.39405 | 36797 ft | 479 kts | 194° |
| 2026-05-06 00:21 | 38.47575 | -80.39645 | 37024 ft | 479 kts | 194° |
| 2026-05-06 00:21 | 38.44240 | -80.39886 | 37244 ft | 481 kts | 194° |
| 2026-05-06 00:21 | 38.40901 | -80.40125 | 37570 ft | 480 kts | 194° |
| 2026-05-06 00:21 | 38.37556 | -80.40362 | 37857 ft | 480 kts | 194° |
| 2026-05-06 00:22 | 38.34223 | -80.40600 | 37924 ft | 480 kts | 194° |
| 2026-05-06 00:22 | 38.27603 | -80.41069 | 37922 ft | 479 kts | 194° |
| 2026-05-06 00:23 | 38.20891 | -80.41551 | 37927 ft | 481 kts | 194° |
| 2026-05-06 00:23 | 38.14247 | -80.42029 | 37921 ft | 482 kts | 194° |
| 2026-05-06 00:24 | 38.07557 | -80.42504 | 37923 ft | 481 kts | 195° |
| 2026-05-06 00:24 | 38.00847 | -80.42977 | 37925 ft | 483 kts | 194° |
| 2026-05-06 00:25 | 37.94150 | -80.43440 | 37979 ft | 482 kts | 194° |
| 2026-05-06 00:25 | 37.87452 | -80.43904 | 37980 ft | 482 kts | 194° |
| 2026-05-06 00:26 | 37.80751 | -80.44379 | 37981 ft | 482 kts | 194° |
| 2026-05-06 00:26 | 37.74045 | -80.44852 | 37972 ft | 483 kts | 194° |
| 2026-05-06 00:27 | 37.67323 | -80.45328 | 37969 ft | 483 kts | 194° |
| 2026-05-06 00:27 | 37.60596 | -80.45803 | 37959 ft | 484 kts | 194° |
| 2026-05-06 00:28 | 37.53875 | -80.46266 | 37953 ft | 484 kts | 194° |
| 2026-05-06 00:28 | 37.47144 | -80.46727 | 37946 ft | 483 kts | 194° |
| 2026-05-06 00:29 | 37.40428 | -80.47193 | 37952 ft | 483 kts | 195° |
| 2026-05-06 00:29 | 37.33705 | -80.47669 | 37956 ft | 484 kts | 194° |
| 2026-05-06 00:30 | 37.27014 | -80.48133 | 37960 ft | 486 kts | 194° |
| 2026-05-06 00:30 | 37.20256 | -80.48608 | 38045 ft | 486 kts | 194° |
| 2026-05-06 00:31 | 37.13493 | -80.49076 | 38043 ft | 486 kts | 194° |
| 2026-05-06 00:31 | 37.06724 | -80.49542 | 38020 ft | 486 kts | 193° |
| 2026-05-06 00:32 | 36.99965 | -80.50001 | 38011 ft | 487 kts | 193° |
| 2026-05-06 00:32 | 36.93198 | -80.50466 | 37990 ft | 487 kts | 193° |
| 2026-05-06 00:33 | 36.86466 | -80.50928 | 37977 ft | 487 kts | 193° |
| 2026-05-06 00:33 | 36.79657 | -80.51402 | 37979 ft | 487 kts | 193° |
| 2026-05-06 00:34 | 36.72931 | -80.51853 | 37975 ft | 487 kts | 193° |
| 2026-05-06 00:34 | 36.66123 | -80.52311 | 37976 ft | 487 kts | 193° |
| 2026-05-06 00:35 | 36.59397 | -80.52767 | 37965 ft | 487 kts | 193° |
| 2026-05-06 00:35 | 36.52635 | -80.53239 | 38035 ft | 487 kts | 193° |
| 2026-05-06 00:36 | 36.45867 | -80.53702 | 38035 ft | 487 kts | 193° |
| 2026-05-06 00:36 | 36.39093 | -80.54156 | 38036 ft | 486 kts | 193° |
| 2026-05-06 00:37 | 36.32342 | -80.54609 | 38028 ft | 486 kts | 193° |
| 2026-05-06 00:37 | 36.25586 | -80.55069 | 38010 ft | 486 kts | 193° |
| 2026-05-06 00:38 | 36.18835 | -80.55521 | 37998 ft | 486 kts | 193° |
| 2026-05-06 00:38 | 36.12089 | -80.55978 | 37933 ft | 486 kts | 193° |
| 2026-05-06 00:39 | 36.05335 | -80.56438 | 37979 ft | 486 kts | 193° |
| 2026-05-06 00:39 | 35.98578 | -80.56888 | 37980 ft | 486 kts | 193° |
| 2026-05-06 00:40 | 35.91820 | -80.57331 | 37988 ft | 486 kts | 193° |
| 2026-05-06 00:40 | 35.85069 | -80.57785 | 38015 ft | 487 kts | 193° |
| 2026-05-06 00:41 | 35.78297 | -80.58240 | 38016 ft | 487 kts | 192° |
| 2026-05-06 00:41 | 35.71523 | -80.58688 | 38025 ft | 487 kts | 193° |
| 2026-05-06 00:42 | 35.64750 | -80.59143 | 38032 ft | 487 kts | 193° |
| 2026-05-06 00:42 | 35.57975 | -80.59595 | 38022 ft | 487 kts | 192° |
| 2026-05-06 00:43 | 35.51197 | -80.60035 | 38027 ft | 487 kts | 192° |
| 2026-05-06 00:43 | 35.44424 | -80.60477 | 38030 ft | 487 kts | 193° |
| 2026-05-06 00:44 | 35.37652 | -80.60934 | 37986 ft | 487 kts | 193° |
| 2026-05-06 00:44 | 35.30922 | -80.61381 | 38031 ft | 488 kts | 192° |
| 2026-05-06 00:45 | 35.24153 | -80.61819 | 38037 ft | 488 kts | 192° |
| 2026-05-06 00:45 | 35.17370 | -80.62264 | 38035 ft | 487 kts | 192° |
| 2026-05-06 00:46 | 35.10597 | -80.62715 | 38039 ft | 488 kts | 192° |
| 2026-05-06 00:46 | 35.03820 | -80.63166 | 38032 ft | 488 kts | 192° |
| 2026-05-06 00:47 | 34.97038 | -80.63600 | 38028 ft | 488 kts | 192° |
| 2026-05-06 00:47 | 34.90261 | -80.64039 | 38032 ft | 488 kts | 192° |
| 2026-05-06 00:48 | 34.83479 | -80.64476 | 38032 ft | 488 kts | 192° |
| 2026-05-06 00:48 | 34.76697 | -80.64917 | 38038 ft | 488 kts | 192° |
| 2026-05-06 00:49 | 34.69921 | -80.65372 | 38030 ft | 488 kts | 192° |
| 2026-05-06 00:49 | 34.63051 | -80.64957 | 37996 ft | 506 kts | 175° |
| 2026-05-06 00:50 | 34.56259 | -80.62557 | 38030 ft | 514 kts | 169° |
| 2026-05-06 00:50 | 34.49426 | -80.59952 | 38027 ft | 514 kts | 169° |
| 2026-05-06 00:51 | 34.42600 | -80.57369 | 38049 ft | 514 kts | 169° |
| 2026-05-06 00:51 | 34.35773 | -80.54798 | 38030 ft | 514 kts | 169° |
| 2026-05-06 00:52 | 34.28899 | -80.52558 | 38045 ft | 505 kts | 180° |
| 2026-05-06 00:52 | 34.22156 | -80.52397 | 38054 ft | 485 kts | 197° |
| 2026-05-06 00:52 | 34.18881 | -80.53135 | 38053 ft | 474 kts | 204° |
| 2026-05-06 00:53 | 34.15683 | -80.54116 | 38033 ft | 474 kts | 204° |
| 2026-05-06 00:53 | 34.09279 | -80.56045 | 38023 ft | 475 kts | 204° |
| 2026-05-06 00:54 | 34.02884 | -80.57939 | 38035 ft | 476 kts | 204° |
| 2026-05-06 00:54 | 33.96446 | -80.59849 | 38035 ft | 476 kts | 204° |
| 2026-05-06 00:55 | 33.90021 | -80.61765 | 38034 ft | 476 kts | 204° |
| 2026-05-06 00:55 | 33.83595 | -80.63683 | 38019 ft | 476 kts | 204° |
| 2026-05-06 00:56 | 33.77147 | -80.65608 | 38022 ft | 477 kts | 204° |
| 2026-05-06 00:56 | 33.70696 | -80.67510 | 38046 ft | 477 kts | 204° |
| 2026-05-06 00:57 | 33.64249 | -80.69417 | 38055 ft | 477 kts | 204° |
| 2026-05-06 00:57 | 33.57812 | -80.71338 | 38055 ft | 477 kts | 204° |
| 2026-05-06 00:58 | 33.51361 | -80.73245 | 38063 ft | 477 kts | 204° |
| 2026-05-06 00:58 | 33.44943 | -80.75127 | 38064 ft | 477 kts | 204° |
| 2026-05-06 00:59 | 33.38493 | -80.77011 | 38063 ft | 477 kts | 204° |
| 2026-05-06 00:59 | 33.32053 | -80.78907 | 38054 ft | 477 kts | 204° |
| 2026-05-06 01:00 | 33.25598 | -80.80804 | 38061 ft | 477 kts | 204° |
| 2026-05-06 01:00 | 33.19142 | -80.82696 | 38063 ft | 477 kts | 204° |
| 2026-05-06 01:01 | 33.13778 | -80.84263 | 38068 ft | 477 kts | 204° |
| 2026-05-06 01:01 | 33.07323 | -80.86141 | 38064 ft | 477 kts | 204° |
| 2026-05-06 01:02 | 33.00873 | -80.88025 | 38086 ft | 477 kts | 204° |
| 2026-05-06 01:02 | 32.94426 | -80.89904 | 38090 ft | 477 kts | 204° |
| 2026-05-06 01:03 | 32.87969 | -80.91776 | 38084 ft | 477 kts | 204° |
| 2026-05-06 01:03 | 32.81516 | -80.93644 | 38061 ft | 477 kts | 205° |
| 2026-05-06 01:04 | 32.75089 | -80.95500 | 38076 ft | 478 kts | 205° |
| 2026-05-06 01:04 | 32.68617 | -80.97377 | 38081 ft | 478 kts | 205° |
| 2026-05-06 01:05 | 32.62143 | -80.99248 | 38084 ft | 478 kts | 205° |
| 2026-05-06 01:05 | 32.55676 | -81.01115 | 38049 ft | 479 kts | 205° |
| 2026-05-06 01:05 | 32.52356 | -81.01811 | 38092 ft | 492 kts | 196° |
| 2026-05-06 01:06 | 32.48894 | -81.01980 | 38089 ft | 501 kts | 191° |
| 2026-05-06 01:06 | 32.41926 | -81.02083 | 38090 ft | 501 kts | 191° |
| 2026-05-06 01:07 | 32.34950 | -81.02207 | 38086 ft | 501 kts | 191° |
| 2026-05-06 01:07 | 32.27976 | -81.02342 | 38070 ft | 501 kts | 191° |
| 2026-05-06 01:08 | 32.21034 | -81.02469 | 38080 ft | 502 kts | 191° |
| 2026-05-06 01:08 | 32.14038 | -81.02587 | 38082 ft | 502 kts | 191° |
| 2026-05-06 01:09 | 32.07041 | -81.02704 | 38047 ft | 502 kts | 191° |
| 2026-05-06 01:09 | 32.00056 | -81.02823 | 38041 ft | 503 kts | 191° |
| 2026-05-06 01:10 | 31.93050 | -81.02990 | 38046 ft | 503 kts | 192° |
| 2026-05-06 01:10 | 31.86037 | -81.03201 | 38051 ft | 503 kts | 192° |
| 2026-05-06 01:11 | 31.79036 | -81.03410 | 38056 ft | 503 kts | 192° |
| 2026-05-06 01:11 | 31.72027 | -81.03600 | 38066 ft | 504 kts | 192° |
| 2026-05-06 01:12 | 31.65044 | -81.03785 | 38069 ft | 505 kts | 191° |
| 2026-05-06 01:12 | 31.58014 | -81.03973 | 38068 ft | 504 kts | 192° |
| 2026-05-06 01:13 | 31.51021 | -81.04331 | 38073 ft | 501 kts | 194° |
| 2026-05-06 01:13 | 31.44057 | -81.04865 | 38079 ft | 502 kts | 194° |
| 2026-05-06 01:14 | 31.33591 | -81.05608 | 38076 ft | 503 kts | 193° |
| 2026-05-06 01:14 | 31.26594 | -81.06031 | 38075 ft | 503 kts | 193° |
| 2026-05-06 01:15 | 31.19617 | -81.06346 | 38053 ft | 506 kts | 191° |
| 2026-05-06 01:15 | 31.12552 | -81.06444 | 38077 ft | 508 kts | 190° |
| 2026-05-06 01:16 | 31.05482 | -81.06508 | 38078 ft | 508 kts | 191° |
| 2026-05-06 01:16 | 30.98432 | -81.06639 | 38073 ft | 507 kts | 191° |
| 2026-05-06 01:17 | 30.91400 | -81.06808 | 38067 ft | 507 kts | 191° |
| 2026-05-06 01:17 | 30.84329 | -81.06965 | 38082 ft | 507 kts | 191° |
| 2026-05-06 01:18 | 30.77264 | -81.07109 | 38070 ft | 507 kts | 191° |
| 2026-05-06 01:18 | 30.70195 | -81.07252 | 38085 ft | 508 kts | 191° |
| 2026-05-06 01:19 | 30.63136 | -81.07394 | 38061 ft | 508 kts | 191° |
| 2026-05-06 01:19 | 30.56092 | -81.07683 | 38079 ft | 505 kts | 193° |
| 2026-05-06 01:20 | 30.49090 | -81.08172 | 38081 ft | 504 kts | 194° |
| 2026-05-06 01:20 | 30.42123 | -81.08664 | 38081 ft | 505 kts | 193° |
| 2026-05-06 01:21 | 30.35103 | -81.09090 | 38082 ft | 505 kts | 193° |
| 2026-05-06 01:21 | 30.28073 | -81.09484 | 38082 ft | 506 kts | 193° |
| 2026-05-06 01:22 | 30.21049 | -81.09893 | 38086 ft | 505 kts | 193° |
| 2026-05-06 01:22 | 30.14035 | -81.10323 | 38090 ft | 505 kts | 193° |
| 2026-05-06 01:23 | 30.07009 | -81.10748 | 38084 ft | 505 kts | 193° |
| 2026-05-06 01:23 | 29.99987 | -81.11165 | 38093 ft | 505 kts | 193° |
| 2026-05-06 01:24 | 29.92961 | -81.11581 | 38095 ft | 505 kts | 193° |
| 2026-05-06 01:24 | 29.85938 | -81.11939 | 38093 ft | 510 kts | 188° |
| 2026-05-06 01:25 | 29.82361 | -81.11593 | 38086 ft | 522 kts | 178° |
| 2026-05-06 01:25 | 29.78796 | -81.10627 | 38083 ft | 532 kts | 168° |
| 2026-05-06 01:25 | 29.71881 | -81.07364 | 38098 ft | 538 kts | 162° |
| 2026-05-06 01:26 | 29.65041 | -81.04005 | 38072 ft | 538 kts | 162° |
| 2026-05-06 01:26 | 29.58112 | -81.00622 | 38092 ft | 538 kts | 162° |
| 2026-05-06 01:27 | 29.51220 | -80.97252 | 38064 ft | 538 kts | 162° |
| 2026-05-06 01:27 | 29.44347 | -80.93896 | 38083 ft | 537 kts | 162° |
| 2026-05-06 01:28 | 29.37461 | -80.90545 | 38100 ft | 537 kts | 162° |
| 2026-05-06 01:28 | 29.30620 | -80.87221 | 38090 ft | 537 kts | 162° |
| 2026-05-06 01:29 | 29.23738 | -80.83883 | 38089 ft | 537 kts | 162° |
| 2026-05-06 01:29 | 29.16855 | -80.80539 | 38083 ft | 537 kts | 162° |
| 2026-05-06 01:30 | 29.09976 | -80.77216 | 38082 ft | 536 kts | 162° |
| 2026-05-06 01:30 | 29.03101 | -80.73894 | 38081 ft | 536 kts | 162° |
| 2026-05-06 01:31 | 28.96225 | -80.70574 | 38081 ft | 536 kts | 162° |
| 2026-05-06 01:31 | 28.89309 | -80.67392 | 38082 ft | 535 kts | 164° |
| 2026-05-06 01:32 | 28.82369 | -80.64355 | 38064 ft | 534 kts | 164° |
| 2026-05-06 01:32 | 28.75471 | -80.61335 | 38066 ft | 534 kts | 164° |
| 2026-05-06 01:33 | 28.68549 | -80.58249 | 38054 ft | 534 kts | 163° |
| 2026-05-06 01:33 | 28.61635 | -80.55148 | 38027 ft | 533 kts | 163° |
| 2026-05-06 01:34 | 28.54723 | -80.52068 | 38039 ft | 534 kts | 163° |
| 2026-05-06 01:34 | 28.47799 | -80.48997 | 38045 ft | 534 kts | 163° |
| 2026-05-06 01:35 | 28.40876 | -80.45928 | 38046 ft | 534 kts | 163° |
| 2026-05-06 01:35 | 28.33948 | -80.42865 | 38051 ft | 534 kts | 163° |
| 2026-05-06 01:36 | 28.27021 | -80.39803 | 38053 ft | 534 kts | 163° |
| 2026-05-06 01:36 | 28.20098 | -80.36742 | 38057 ft | 534 kts | 163° |
| 2026-05-06 01:37 | 28.13178 | -80.33685 | 38062 ft | 535 kts | 163° |
| 2026-05-06 01:37 | 28.06253 | -80.30686 | 38076 ft | 536 kts | 165° |
| 2026-05-06 01:38 | 28.02735 | -80.29273 | 37903 ft | 534 kts | 166° |
| 2026-05-06 01:38 | 27.99234 | -80.27928 | 37471 ft | 529 kts | 166° |
| 2026-05-06 01:38 | 27.95753 | -80.26619 | 37041 ft | 523 kts | 166° |
| 2026-05-06 01:38 | 27.92331 | -80.25327 | 36284 ft | 516 kts | 166° |
| 2026-05-06 01:39 | 27.88941 | -80.24033 | 35549 ft | 511 kts | 166° |
| 2026-05-06 01:39 | 27.85598 | -80.22740 | 34843 ft | 505 kts | 165° |
| 2026-05-06 01:39 | 27.82296 | -80.21452 | 34136 ft | 499 kts | 165° |
| 2026-05-06 01:39 | 27.79041 | -80.20175 | 33358 ft | 493 kts | 165° |
| 2026-05-06 01:40 | 27.75821 | -80.18910 | 32614 ft | 486 kts | 165° |
| 2026-05-06 01:40 | 27.72646 | -80.17665 | 31896 ft | 480 kts | 165° |
| 2026-05-06 01:40 | 27.69510 | -80.16443 | 31209 ft | 473 kts | 165° |
| 2026-05-06 01:40 | 27.66423 | -80.15248 | 30548 ft | 466 kts | 165° |
| 2026-05-06 01:41 | 27.63360 | -80.14063 | 29854 ft | 460 kts | 164° |
| 2026-05-06 01:41 | 27.60360 | -80.12894 | 29128 ft | 455 kts | 164° |
| 2026-05-06 01:41 | 27.57387 | -80.11694 | 28764 ft | 451 kts | 163° |
| 2026-05-06 01:41 | 27.54453 | -80.10475 | 28415 ft | 447 kts | 163° |
| 2026-05-06 01:42 | 27.51551 | -80.09257 | 28055 ft | 443 kts | 163° |
| 2026-05-06 01:42 | 27.48674 | -80.08051 | 27685 ft | 440 kts | 163° |
| 2026-05-06 01:42 | 27.45855 | -80.06874 | 27327 ft | 436 kts | 163° |
| 2026-05-06 01:42 | 27.43018 | -80.05698 | 26963 ft | 432 kts | 163° |
| 2026-05-06 01:43 | 27.40207 | -80.04543 | 26598 ft | 428 kts | 164° |
| 2026-05-06 01:43 | 27.37408 | -80.03434 | 26238 ft | 424 kts | 166° |
| 2026-05-06 01:43 | 27.34609 | -80.02473 | 25881 ft | 419 kts | 168° |
| 2026-05-06 01:43 | 27.31804 | -80.01622 | 25516 ft | 415 kts | 170° |
| 2026-05-06 01:44 | 27.28986 | -80.00822 | 24744 ft | 424 kts | 171° |
| 2026-05-06 01:44 | 27.26072 | -80.00009 | 24273 ft | 438 kts | 170° |
| 2026-05-06 01:44 | 27.23117 | -79.99115 | 24011 ft | 440 kts | 168° |
| 2026-05-06 01:44 | 27.20206 | -79.98125 | 23333 ft | 434 kts | 166° |
| 2026-05-06 01:45 | 27.17355 | -79.97073 | 22422 ft | 428 kts | 165° |
| 2026-05-06 01:45 | 27.14550 | -79.96001 | 21549 ft | 422 kts | 165° |
| 2026-05-06 01:45 | 27.11794 | -79.94946 | 20707 ft | 416 kts | 165° |
| 2026-05-06 01:45 | 27.09072 | -79.93925 | 19898 ft | 408 kts | 165° |
| 2026-05-06 01:46 | 27.06397 | -79.92940 | 19104 ft | 401 kts | 164° |
| 2026-05-06 01:46 | 27.04652 | -79.92279 | 18586 ft | 397 kts | 163° |
| 2026-05-06 01:46 | 27.02060 | -79.91254 | 17735 ft | 391 kts | 162° |
| 2026-05-06 01:46 | 26.99521 | -79.90219 | 16920 ft | 388 kts | 162° |
| 2026-05-06 01:47 | 26.97032 | -79.89194 | 16452 ft | 383 kts | 162° |
| 2026-05-06 01:47 | 26.94562 | -79.88176 | 16239 ft | 373 kts | 162° |
| 2026-05-06 01:47 | 26.92147 | -79.87188 | 15890 ft | 367 kts | 162° |
| 2026-05-06 01:47 | 26.89760 | -79.86220 | 15492 ft | 363 kts | 162° |
| 2026-05-06 01:48 | 26.87393 | -79.85268 | 15090 ft | 360 kts | 162° |
| 2026-05-06 01:48 | 26.85052 | -79.84330 | 14691 ft | 356 kts | 162° |
| 2026-05-06 01:48 | 26.82723 | -79.83398 | 14307 ft | 353 kts | 162° |
| 2026-05-06 01:48 | 26.80420 | -79.82474 | 13975 ft | 349 kts | 162° |
| 2026-05-06 01:49 | 26.78169 | -79.81567 | 13771 ft | 340 kts | 162° |
| 2026-05-06 01:49 | 26.75955 | -79.80672 | 13428 ft | 336 kts | 162° |
| 2026-05-06 01:49 | 26.73799 | -79.79801 | 12793 ft | 331 kts | 163° |
| 2026-05-06 01:49 | 26.71596 | -79.79180 | 12128 ft | 324 kts | 175° |
| 2026-05-06 01:50 | 26.69371 | -79.79084 | 11474 ft | 316 kts | 187° |
| 2026-05-06 01:50 | 26.67274 | -79.79478 | 11245 ft | 294 kts | 199° |
| 2026-05-06 01:50 | 26.65399 | -79.80181 | 10988 ft | 279 kts | 203° |
| 2026-05-06 01:50 | 26.63594 | -79.80912 | 10553 ft | 273 kts | 204° |
| 2026-05-06 01:51 | 26.61763 | -79.81656 | 10068 ft | 271 kts | 204° |
| 2026-05-06 01:51 | 26.59991 | -79.82380 | 9776 ft | 270 kts | 204° |
| 2026-05-06 01:51 | 26.58227 | -79.83098 | 9502 ft | 268 kts | 204° |
| 2026-05-06 01:51 | 26.56480 | -79.83809 | 9220 ft | 266 kts | 204° |
| 2026-05-06 01:52 | 26.54750 | -79.84525 | 8927 ft | 264 kts | 205° |
| 2026-05-06 01:52 | 26.53046 | -79.85297 | 8639 ft | 263 kts | 206° |
| 2026-05-06 01:52 | 26.51361 | -79.86097 | 8349 ft | 262 kts | 207° |
| 2026-05-06 01:52 | 26.49694 | -79.86898 | 8096 ft | 260 kts | 206° |
| 2026-05-06 01:53 | 26.48052 | -79.87683 | 8019 ft | 251 kts | 206° |
| 2026-05-06 01:53 | 26.46503 | -79.88416 | 8023 ft | 241 kts | 206° |
| 2026-05-06 01:53 | 26.44966 | -79.89141 | 8025 ft | 239 kts | 207° |
| 2026-05-06 01:53 | 26.43415 | -79.89874 | 8026 ft | 239 kts | 206° |
| 2026-05-06 01:54 | 26.41881 | -79.90597 | 8026 ft | 247 kts | 206° |
| 2026-05-06 01:54 | 26.40284 | -79.91347 | 8026 ft | 249 kts | 206° |
| 2026-05-06 01:54 | 26.38683 | -79.92099 | 8027 ft | 250 kts | 207° |
| 2026-05-06 01:54 | 26.37169 | -79.93010 | 8024 ft | 243 kts | 214° |
| 2026-05-06 01:55 | 26.35738 | -79.93929 | 7951 ft | 232 kts | 213° |
| 2026-05-06 01:55 | 26.34365 | -79.94807 | 7848 ft | 221 kts | 213° |
| 2026-05-06 01:55 | 26.33072 | -79.95634 | 7576 ft | 211 kts | 214° |
| 2026-05-06 01:55 | 26.31806 | -79.96447 | 7195 ft | 209 kts | 213° |
| 2026-05-06 01:56 | 26.30546 | -79.97257 | 6778 ft | 209 kts | 212° |
| 2026-05-06 01:56 | 26.29288 | -79.98065 | 6370 ft | 208 kts | 212° |
| 2026-05-06 01:56 | 26.28039 | -79.98870 | 6013 ft | 207 kts | 213° |
| 2026-05-06 01:56 | 26.26783 | -79.99680 | 6012 ft | 208 kts | 214° |
| 2026-05-06 01:57 | 26.25529 | -80.00484 | 6017 ft | 208 kts | 214° |
| 2026-05-06 01:57 | 26.24290 | -80.01281 | 6017 ft | 208 kts | 213° |
| 2026-05-06 01:57 | 26.23040 | -80.02086 | 6017 ft | 205 kts | 212° |
| 2026-05-06 01:57 | 26.21827 | -80.02863 | 6016 ft | 199 kts | 213° |
| 2026-05-06 01:58 | 26.20635 | -80.03628 | 6018 ft | 197 kts | 212° |
| 2026-05-06 01:58 | 26.19531 | -80.04412 | 6017 ft | 194 kts | 221° |
| 2026-05-06 01:58 | 26.18549 | -80.05438 | 6015 ft | 194 kts | 232° |
| 2026-05-06 01:58 | 26.17770 | -80.06656 | 6024 ft | 192 kts | 243° |
| 2026-05-06 01:59 | 26.17224 | -80.08016 | 6021 ft | 192 kts | 253° |
| 2026-05-06 01:59 | 26.16801 | -80.09430 | 6019 ft | 193 kts | 253° |
| 2026-05-06 01:59 | 26.16374 | -80.10836 | 6016 ft | 187 kts | 253° |
| 2026-05-06 01:59 | 26.15977 | -80.12140 | 6018 ft | 173 kts | 253° |
| 2026-05-06 02:00 | 26.15598 | -80.13386 | 6003 ft | 168 kts | 252° |
| 2026-05-06 02:00 | 26.15241 | -80.14622 | 6018 ft | 166 kts | 258° |
| 2026-05-06 02:00 | 26.15047 | -80.15884 | 6017 ft | 165 kts | 266° |
| 2026-05-06 02:00 | 26.15026 | -80.17160 | 6004 ft | 164 kts | 271° |
| 2026-05-06 02:01 | 26.15036 | -80.18428 | 5682 ft | 165 kts | 270° |
| 2026-05-06 02:01 | 26.15042 | -80.19698 | 5312 ft | 167 kts | 271° |
| 2026-05-06 02:01 | 26.15048 | -80.20987 | 4974 ft | 166 kts | 270° |
| 2026-05-06 02:01 | 26.15054 | -80.22267 | 4652 ft | 164 kts | 271° |
| 2026-05-06 02:02 | 26.15059 | -80.23540 | 4289 ft | 167 kts | 271° |
| 2026-05-06 02:02 | 26.15065 | -80.24831 | 3958 ft | 167 kts | 271° |
| 2026-05-06 02:02 | 26.15070 | -80.26129 | 3605 ft | 169 kts | 271° |
| 2026-05-06 02:02 | 26.15076 | -80.27445 | 3242 ft | 172 kts | 271° |
| 2026-05-06 02:03 | 26.15083 | -80.28781 | 3020 ft | 168 kts | 271° |
| 2026-05-06 02:03 | 26.15087 | -80.30037 | 3012 ft | 161 kts | 270° |
| 2026-05-06 02:03 | 26.15091 | -80.31276 | 3015 ft | 160 kts | 271° |
| 2026-05-06 02:03 | 26.15094 | -80.32513 | 3014 ft | 160 kts | 271° |
| 2026-05-06 02:04 | 26.15099 | -80.33756 | 3019 ft | 160 kts | 271° |
| 2026-05-06 02:04 | 26.15071 | -80.34985 | 2991 ft | 158 kts | 259° |
| 2026-05-06 02:04 | 26.14548 | -80.36038 | 2717 ft | 158 kts | 219° |
| 2026-05-06 02:04 | 26.13572 | -80.36510 | 2438 ft | 153 kts | 180° |
| 2026-05-06 02:05 | 26.12575 | -80.36277 | 2140 ft | 143 kts | 149° |
| 2026-05-06 02:05 | 26.11681 | -80.35780 | 1806 ft | 143 kts | 149° |
| 2026-05-06 02:05 | 26.10785 | -80.35281 | 1820 ft | 146 kts | 149° |
| 2026-05-06 02:05 | 26.09870 | -80.34772 | 1819 ft | 147 kts | 149° |
| 2026-05-06 02:06 | 26.08959 | -80.34262 | 1817 ft | 147 kts | 146° |
| 2026-05-06 02:06 | 26.08215 | -80.33539 | 1817 ft | 143 kts | 123° |
| 2026-05-06 02:06 | 26.07815 | -80.32541 | 1820 ft | 140 kts | 99° |
| 2026-05-06 02:06 | 26.07767 | -80.31472 | 1817 ft | 138 kts | 89° |
| 2026-05-06 02:07 | 26.07763 | -80.30427 | 1817 ft | 136 kts | 88° |
| 2026-05-06 02:07 | 26.07758 | -80.29361 | 1815 ft | 139 kts | 89° |
| 2026-05-06 02:07 | 26.07753 | -80.28307 | 1819 ft | 140 kts | 89° |
| 2026-05-06 02:07 | 26.07748 | -80.27217 | 1768 ft | 140 kts | 89° |
| 2026-05-06 02:08 | 26.07743 | -80.26136 | 1636 ft | 139 kts | 89° |
| 2026-05-06 02:08 | 26.07738 | -80.25062 | 1472 ft | 139 kts | 89° |
| 2026-05-06 02:08 | 26.07732 | -80.23984 | 1299 ft | 139 kts | 89° |
| 2026-05-06 02:08 | 26.07727 | -80.22917 | 1127 ft | 138 kts | 89° |
| 2026-05-06 02:09 | 26.07722 | -80.21846 | 953 ft | 138 kts | 90° |
| 2026-05-06 02:09 | 26.07716 | -80.20774 | 780 ft | 140 kts | 89° |
| 2026-05-06 02:09 | 26.07711 | -80.19696 | 616 ft | 139 kts | 89° |
| 2026-05-06 02:09 | 26.07705 | -80.18620 | 435 ft | 137 kts | 88° |
| 2026-05-06 02:10 | 26.07700 | -80.17553 | 246 ft | 138 kts | 89° |
| 2026-05-06 02:10 | 26.07697 | -80.16502 | 123 ft | 137 kts | 89° |
| 2026-05-06 02:10 | 26.07695 | -80.15460 | 44 ft | 130 kts | 90° |
| 2026-05-06 02:10 | 26.07682 | -80.14630 | 24 ft | 54 kts | 92° |
| 2026-05-06 02:11 | 26.07657 | -80.14463 | 26 ft | 19 kts | 118° |
| 2026-05-06 02:11 | 26.07590 | -80.14398 | 27 ft | 6 kts | 186° |
| 2026-05-06 02:11 | 26.07559 | -80.14449 | 28 ft | 11 kts | 267° |
| 2026-05-06 02:11 | 26.07560 | -80.14536 | 26 ft | 10 kts | 271° |
| 2026-05-06 02:12 | 26.07561 | -80.14638 | 25 ft | 16 kts | 270° |
| 2026-05-06 02:12 | 26.07532 | -80.14743 | 24 ft | 16 kts | 212° |
| 2026-05-06 02:12 | 26.07480 | -80.14776 | 22 ft | 9 kts | 215° |
| 2026-05-06 02:12 | 26.07421 | -80.14841 | 21 ft | 14 kts | 226° |
| 2026-05-06 02:13 | 26.07377 | -80.14890 | 21 ft | 1 kts | 225° |
| 2026-05-06 02:13 | 26.07361 | -80.14910 | 21 ft | 5 kts | 221° |
| 2026-05-06 02:13 | 26.07321 | -80.14944 | 21 ft | 9 kts | 208° |
| 2026-05-06 02:13 | 26.07250 | -80.14949 | 21 ft | 12 kts | 180° |
| 2026-05-06 02:14 | 26.07158 | -80.14931 | 21 ft | 16 kts | 153° |
| 2026-05-06 02:14 | 26.07066 | -80.14837 | 20 ft | 20 kts | 135° |
| 2026-05-06 02:14 | 26.06996 | -80.14761 | 21 ft | 12 kts | 136° |
| 2026-05-06 02:14 | 26.06922 | -80.14702 | 19 ft | 15 kts | 137° |
| 2026-05-06 02:15 | 26.06856 | -80.14628 | 19 ft | 5 kts | 135° |
| 2026-05-06 02:15 | 26.06838 | -80.14604 | 17 ft | 1 kts | 117° |
| 2026-05-06 02:15 | 26.06837 | -80.14584 | 16 ft | 4 kts | 61° |
| 2026-05-06 02:15 | 26.06866 | -80.14562 | 17 ft | 6 kts | 26° |
| 2026-05-06 02:16 | 26.06886 | -80.14552 | 17 ft | 0 kts | 24° |